createdAt,value
2019-05-11T00:01:39.807Z,12.72
2019-05-11T00:06:47.341Z,12.16
2019-05-11T00:11:54.901Z,12.32
2019-05-11T00:17:02.332Z,12.98
2019-05-11T00:22:09.924Z,13.38
2019-05-11T00:27:17.369Z,13.00
2019-05-11T00:32:24.755Z,13.11
2019-05-11T00:37:32.200Z,13.18
2019-05-11T00:42:39.665Z,12.90
2019-05-11T00:47:47.107Z,13.48
2019-05-11T00:52:54.520Z,12.72
2019-05-11T00:58:01.860Z,12.94
2019-05-11T01:03:09.763Z,13.74
2019-05-11T01:08:17.643Z,13.15
2019-05-11T01:13:25.082Z,14.14
2019-05-11T01:18:33.038Z,13.76
2019-05-11T01:23:40.803Z,14.35
2019-05-11T01:28:48.500Z,14.59
2019-05-11T01:33:55.899Z,15.00
2019-05-11T01:39:03.432Z,18.46
2019-05-11T01:44:10.877Z,17.64
2019-05-11T01:49:18.254Z,17.84
2019-05-11T01:54:25.675Z,18.72
2019-05-11T01:59:33.064Z,17.11
2019-05-11T02:04:40.528Z,17.23
2019-05-11T02:09:47.896Z,14.92
2019-05-11T02:14:55.322Z,17.01
2019-05-11T02:20:03.017Z,16.62
2019-05-11T02:25:10.405Z,16.57
2019-05-11T02:30:17.843Z,15.88
2019-05-11T02:35:25.303Z,15.42
2019-05-11T02:40:32.644Z,15.69
2019-05-11T02:45:40.069Z,16.18
2019-05-11T02:50:47.462Z,16.01
2019-05-11T02:55:55.052Z,16.08
2019-05-11T03:01:02.439Z,17.30
2019-05-11T03:06:09.894Z,17.54
2019-05-11T03:11:17.281Z,18.65
2019-05-11T03:16:24.742Z,18.63
2019-05-11T03:21:32.237Z,18.88
2019-05-11T03:26:39.765Z,19.55
2019-05-11T03:31:47.327Z,17.30
2019-05-11T03:36:54.576Z,21.64
2019-05-11T03:42:14.113Z,22.19
2019-05-11T03:47:08.865Z,21.83
2019-05-11T03:52:16.260Z,23.18
2019-05-11T03:57:23.779Z,24.20
2019-05-11T04:02:31.114Z,24.71
2019-05-11T04:07:38.505Z,25.59
2019-05-11T04:12:45.901Z,25.24
2019-05-11T04:17:53.404Z,25.93
2019-05-11T04:23:00.801Z,26.71
2019-05-11T04:28:08.326Z,25.35
2019-05-11T04:33:15.728Z,25.29
2019-05-11T04:38:23.173Z,25.08
2019-05-11T04:43:30.540Z,24.38
2019-05-11T04:48:38.171Z,23.34
2019-05-11T04:53:45.575Z,24.00
2019-05-11T04:58:53.085Z,23.98
2019-05-11T05:04:13.240Z,23.54
2019-05-11T05:09:07.482Z,24.02
2019-05-11T05:14:14.858Z,24.56
2019-05-11T05:19:22.488Z,24.41
2019-05-11T05:24:29.996Z,25.37
2019-05-11T05:29:37.429Z,24.33
2019-05-11T05:34:44.821Z,24.47
2019-05-11T05:39:52.250Z,26.33
2019-05-11T05:44:59.601Z,24.36
2019-05-11T05:50:07.056Z,22.66
2019-05-11T05:55:14.445Z,22.43
2019-05-11T06:00:21.940Z,19.11
2019-05-11T06:05:29.366Z,18.80
2019-05-11T06:10:36.779Z,19.21
2019-05-11T06:15:44.202Z,18.32
2019-05-11T06:20:51.763Z,14.27
2019-05-11T06:25:59.168Z,16.04
2019-05-11T06:31:06.687Z,14.00
2019-05-11T06:36:14.113Z,14.15
2019-05-11T06:41:21.611Z,16.99
2019-05-11T06:46:29.056Z,17.90
2019-05-11T06:51:40.181Z,21.57
2019-05-11T06:56:43.572Z,24.64
2019-05-11T07:01:51.250Z,21.05
2019-05-11T07:06:58.632Z,20.94
2019-05-11T07:12:06.177Z,22.80
2019-05-11T07:17:13.445Z,26.24
2019-05-11T07:22:20.942Z,23.93
2019-05-11T07:27:28.495Z,26.03
2019-05-11T07:32:38.019Z,25.54
2019-05-11T07:37:42.914Z,25.59
2019-05-11T07:42:50.564Z,32.51
2019-05-11T07:47:58.938Z,35.74
2019-05-11T07:53:05.029Z,35.80
2019-05-11T07:58:12.529Z,38.89
2019-05-11T08:03:20.157Z,40.65
2019-05-11T08:08:28.317Z,42.69
2019-05-11T08:13:34.841Z,41.34
2019-05-11T08:18:42.260Z,46.99
2019-05-11T08:23:49.724Z,50.11
2019-05-11T08:28:57.873Z,47.85
2019-05-11T08:34:04.360Z,49.58
2019-05-11T08:39:11.768Z,54.08
2019-05-11T08:44:19.194Z,48.00
2019-05-11T08:49:28.739Z,42.52
2019-05-11T08:54:33.774Z,42.89
2019-05-11T08:59:41.167Z,44.00
2019-05-11T09:04:48.680Z,39.88
2019-05-11T09:09:58.386Z,45.24
2019-05-11T09:15:03.384Z,47.77
2019-05-11T09:20:10.895Z,43.26
2019-05-11T09:25:18.558Z,44.58
2019-05-11T09:30:25.746Z,49.20
2019-05-11T09:35:46.701Z,45.85
2019-05-11T09:40:40.097Z,44.10
2019-05-11T09:45:48.642Z,39.58
2019-05-11T09:50:54.649Z,34.45
2019-05-11T09:56:02.641Z,36.79
2019-05-11T10:01:10.124Z,32.24
2019-05-11T10:06:18.933Z,28.81
2019-05-11T10:11:24.590Z,26.78
2019-05-11T10:16:32.251Z,23.31
2019-05-11T10:21:39.731Z,28.36
2019-05-11T10:26:48.680Z,24.07
2019-05-11T10:31:54.444Z,23.72
2019-05-11T10:37:02.031Z,24.47
2019-05-11T10:42:09.491Z,21.18
2019-05-11T10:47:18.485Z,20.65
2019-05-11T10:52:24.025Z,26.35
2019-05-11T10:57:31.540Z,21.31
2019-05-11T11:02:38.983Z,20.07
2019-05-11T11:07:48.394Z,17.20
2019-05-11T11:12:53.453Z,19.24
2019-05-11T11:18:01.013Z,18.06
2019-05-11T11:23:09.005Z,16.66
2019-05-11T11:28:17.521Z,17.51
2019-05-11T11:33:23.306Z,14.73
2019-05-11T11:38:30.802Z,15.88
2019-05-11T11:43:38.324Z,15.82
2019-05-11T11:48:45.809Z,16.41
2019-05-11T11:53:53.801Z,15.56
2019-05-11T11:59:01.360Z,15.05
2019-05-11T12:04:08.860Z,13.26
2019-05-11T12:09:18.205Z,15.96
2019-05-11T12:14:23.340Z,12.37
2019-05-11T12:19:30.834Z,10.92
2019-05-11T12:24:38.349Z,8.90
2019-05-11T12:29:47.945Z,7.17
2019-05-11T12:34:52.971Z,8.31
2019-05-11T12:40:00.685Z,7.50
2019-05-11T12:45:08.172Z,6.93
2019-05-11T12:50:18.422Z,7.49
2019-05-11T12:55:22.806Z,7.21
2019-05-11T13:00:31.373Z,7.34
2019-05-11T13:05:37.761Z,6.04
2019-05-11T13:10:44.369Z,5.85
2019-05-11T13:15:51.880Z,5.99
2019-05-11T13:20:59.293Z,4.77
2019-05-11T13:26:08.793Z,5.82
2019-05-11T13:31:13.868Z,5.72
2019-05-11T13:36:21.522Z,7.38
2019-05-11T13:41:28.942Z,7.64
2019-05-11T13:46:38.656Z,6.55
2019-05-11T13:51:43.476Z,5.98
2019-05-11T13:56:50.911Z,6.37
2019-05-11T14:01:58.465Z,6.12
2019-05-11T14:07:07.853Z,7.12
2019-05-11T14:12:12.870Z,6.00
2019-05-11T14:17:23.153Z,5.56
2019-05-11T14:22:20.575Z,6.54
2019-05-11T14:27:28.353Z,5.80
2019-05-11T14:32:35.228Z,7.48
2019-05-11T14:37:42.727Z,6.07
2019-05-11T14:42:50.176Z,6.69
2019-05-11T14:47:58.259Z,5.94
2019-05-11T14:53:04.690Z,4.94
2019-05-11T14:58:12.152Z,5.67
2019-05-11T15:03:19.614Z,5.60
2019-05-11T15:08:28.639Z,5.64
2019-05-11T15:13:34.012Z,6.38
2019-05-11T15:18:42.185Z,9.26
2019-05-11T15:23:48.466Z,9.73
2019-05-11T15:28:55.927Z,9.56
2019-05-11T15:34:03.461Z,10.86
2019-05-11T15:39:10.911Z,10.72
2019-05-11T15:44:18.534Z,10.25
2019-05-11T15:49:28.085Z,11.19
2019-05-11T15:54:32.683Z,10.28
2019-05-11T15:59:40.087Z,8.28
2019-05-11T16:04:49.335Z,8.11
2019-05-11T16:09:54.526Z,9.63
2019-05-11T16:15:02.029Z,8.51
2019-05-11T16:20:09.456Z,7.47
2019-05-11T16:25:19.240Z,7.53
2019-05-11T16:30:24.066Z,7.28
2019-05-11T16:35:31.606Z,7.98
2019-05-11T16:40:39.031Z,7.95
2019-05-11T16:45:50.704Z,8.95
2019-05-11T16:50:53.458Z,8.37
2019-05-11T16:56:01.074Z,8.51
2019-05-11T17:01:08.786Z,6.67
2019-05-11T17:06:15.991Z,5.86
2019-05-11T17:11:23.535Z,4.02
2019-05-11T17:16:31.104Z,3.64
2019-05-11T17:21:38.588Z,3.23
2019-05-11T17:26:47.859Z,3.13
2019-05-11T17:31:53.097Z,3.21
2019-05-11T17:37:00.602Z,3.16
2019-05-11T17:42:08.993Z,2.80
2019-05-11T17:47:17.393Z,3.10
2019-05-11T17:52:22.550Z,3.11
2019-05-11T17:57:30.353Z,2.89
2019-05-11T18:02:39.011Z,2.82
2019-05-11T18:07:44.939Z,2.84
2019-05-11T18:12:52.569Z,2.84
2019-05-11T18:18:00.250Z,3.04
2019-05-11T18:23:08.252Z,3.05
2019-05-11T18:28:14.812Z,3.04
2019-05-11T18:33:22.209Z,3.53
2019-05-11T18:38:29.716Z,3.46
2019-05-11T18:43:37.756Z,3.51
2019-05-11T18:48:44.149Z,3.06
2019-05-11T18:53:51.886Z,3.88
2019-05-11T18:58:59.364Z,3.25
2019-05-11T19:04:07.846Z,3.23
2019-05-11T19:09:13.829Z,3.42
2019-05-11T19:14:21.292Z,3.10
2019-05-11T19:19:28.723Z,4.25
2019-05-11T19:24:38.158Z,3.60
2019-05-11T19:29:43.246Z,3.71
2019-05-11T19:34:50.809Z,3.31
2019-05-11T19:39:58.346Z,3.19
2019-05-11T19:45:05.766Z,3.41
2019-05-11T19:50:13.251Z,3.33
2019-05-11T19:55:20.666Z,2.91
2019-05-11T20:00:28.400Z,3.31
2019-05-11T20:05:37.862Z,3.78
2019-05-11T20:10:43.165Z,4.08
2019-05-11T20:15:50.639Z,4.05
2019-05-11T20:20:58.192Z,3.75
2019-05-11T20:26:05.670Z,3.89
2019-05-11T20:31:13.222Z,3.26
2019-05-11T20:36:20.645Z,2.93
2019-05-11T20:41:28.249Z,3.24
2019-05-11T20:46:38.087Z,3.17
2019-05-11T20:51:42.858Z,3.38
2019-05-11T20:56:50.534Z,2.86
2019-05-11T21:01:58.600Z,3.30
2019-05-11T21:07:05.042Z,2.78
2019-05-11T21:12:12.567Z,2.61
2019-05-11T21:17:20.138Z,2.31
2019-05-11T21:22:28.254Z,2.63
2019-05-11T21:27:38.145Z,2.60
2019-05-11T21:32:42.664Z,2.76
2019-05-11T21:37:50.178Z,2.57
2019-05-11T21:42:58.083Z,2.67
2019-05-11T21:48:04.773Z,2.71
2019-05-11T21:53:12.197Z,2.51
2019-05-11T21:58:19.500Z,3.07
2019-05-11T22:03:28.091Z,2.74
2019-05-11T22:08:33.821Z,2.68
2019-05-11T22:13:41.251Z,3.02
2019-05-11T22:18:48.622Z,2.92
2019-05-11T22:23:58.301Z,2.47
2019-05-11T22:29:03.283Z,2.62
2019-05-11T22:34:10.832Z,2.65
2019-05-11T22:39:20.750Z,2.51
2019-05-11T22:44:27.744Z,2.80
2019-05-11T22:49:32.247Z,2.66
2019-05-11T22:54:39.862Z,3.08
2019-05-11T22:59:47.261Z,2.97
2019-05-11T23:04:54.680Z,2.57
2019-05-11T23:10:02.094Z,2.89
2019-05-11T23:15:09.586Z,2.66
2019-05-11T23:20:17.900Z,2.74
2019-05-11T23:25:35.816Z,3.06
2019-05-11T23:30:31.591Z,2.64
2019-05-11T23:35:39.011Z,2.74
2019-05-11T23:40:48.163Z,2.89
2019-05-11T23:45:53.513Z,2.75
2019-05-11T23:51:00.929Z,2.99
2019-05-11T23:56:08.259Z,2.88
